createdAt,value
2022-10-21T00:01:20.578Z,100.00
2022-10-21T00:06:42.412Z,100.00
2022-10-21T00:12:04.408Z,100.00
2022-10-21T00:17:26.447Z,100.00
2022-10-21T00:22:48.258Z,100.00
2022-10-21T00:28:10.075Z,100.00
2022-10-21T00:33:31.923Z,100.00
2022-10-21T00:38:53.773Z,100.00
2022-10-21T00:44:15.718Z,100.00
2022-10-21T00:49:45.233Z,100.00
2022-10-21T00:55:07.529Z,100.00
2022-10-21T01:00:29.737Z,100.00
2022-10-21T01:05:52.816Z,100.00
2022-10-21T01:11:18.301Z,100.00
2022-10-21T01:17:20.431Z,100.00
2022-10-21T01:23:14.801Z,100.00
2022-10-21T01:29:06.092Z,100.00
2022-10-21T01:34:56.096Z,100.00
2022-10-21T01:40:25.772Z,100.00
2022-10-21T01:45:56.464Z,100.00
2022-10-21T01:51:20.146Z,100.00
2022-10-21T01:56:44.583Z,100.00
2022-10-21T02:02:09.205Z,100.00
2022-10-21T02:07:31.140Z,100.00
2022-10-21T02:12:57.053Z,100.00
2022-10-21T02:18:22.213Z,100.00
2022-10-21T02:23:57.349Z,100.00
2022-10-21T02:29:24.149Z,100.00
2022-10-21T02:34:51.937Z,100.00
2022-10-21T02:40:21.994Z,100.00
2022-10-21T02:45:46.552Z,100.00
2022-10-21T02:51:08.543Z,100.00
2022-10-21T03:01:57.305Z,100.00
2022-10-21T03:07:19.139Z,100.00
2022-10-21T03:12:40.952Z,100.00
2022-10-21T03:18:02.829Z,100.00
2022-10-21T03:23:24.690Z,100.00
2022-10-21T03:28:46.489Z,100.00
2022-10-21T03:34:08.307Z,100.00
2022-10-21T03:39:30.182Z,100.00
2022-10-21T03:44:51.975Z,100.00
2022-10-21T03:50:17.335Z,100.00
2022-10-21T03:55:41.037Z,100.00
2022-10-21T04:01:02.870Z,100.00
2022-10-21T04:06:24.718Z,100.00
2022-10-21T04:11:46.527Z,100.00
2022-10-21T04:17:08.377Z,100.00
2022-10-21T04:22:30.201Z,100.00
2022-10-21T04:27:52.003Z,100.00
2022-10-21T04:33:13.811Z,100.00
2022-10-21T04:38:35.619Z,100.00
2022-10-21T04:43:57.393Z,100.00
2022-10-21T04:49:19.423Z,100.00
2022-10-21T04:54:41.267Z,100.00
2022-10-21T05:00:05.082Z,100.00
2022-10-21T05:05:26.928Z,100.00
2022-10-21T05:10:48.929Z,100.00
2022-10-21T05:16:10.823Z,100.00
2022-10-21T05:21:32.792Z,100.00
2022-10-21T05:26:54.674Z,100.00
2022-10-21T05:32:16.553Z,100.00
2022-10-21T05:37:38.430Z,100.00
2022-10-21T05:43:00.251Z,89.64
2022-10-21T05:48:22.512Z,76.39
2022-10-21T05:53:44.345Z,62.14
2022-10-21T05:59:09.326Z,54.60
2022-10-21T06:04:36.337Z,78.44
2022-10-21T06:10:00.731Z,80.70
2022-10-21T06:15:22.614Z,82.40
2022-10-21T06:20:44.510Z,81.75
2022-10-21T06:26:12.911Z,78.94
2022-10-21T06:31:34.774Z,83.29
2022-10-21T06:36:56.659Z,83.09
2022-10-21T06:42:18.753Z,83.18
2022-10-21T06:47:41.054Z,83.71
2022-10-21T06:53:03.357Z,76.82
2022-10-21T06:58:25.172Z,67.66
2022-10-21T07:03:47.317Z,61.37
2022-10-21T07:09:10.032Z,56.76
2022-10-21T07:14:32.052Z,58.09
2022-10-21T07:19:53.882Z,60.28
2022-10-21T07:25:15.812Z,56.96
2022-10-21T07:30:44.696Z,52.51
2022-10-21T07:36:08.083Z,47.57
2022-10-21T07:41:33.041Z,50.82
2022-10-21T07:46:55.568Z,47.19
2022-10-21T07:52:18.080Z,51.01
2022-10-21T07:57:40.415Z,57.42
2022-10-21T08:03:02.255Z,61.98
2022-10-21T08:08:24.811Z,62.40
2022-10-21T08:13:48.109Z,66.78
2022-10-21T08:19:18.146Z,68.77
2022-10-21T08:24:42.317Z,71.02
2022-10-21T08:30:04.843Z,67.82
2022-10-21T08:35:28.119Z,65.98
2022-10-21T08:40:52.313Z,69.96
2022-10-21T08:46:24.387Z,68.19
2022-10-21T08:51:54.450Z,69.88
2022-10-21T08:57:16.705Z,64.99
2022-10-21T09:02:52.401Z,67.33
2022-10-21T09:08:20.274Z,69.08
2022-10-21T09:14:00.223Z,71.15
2022-10-21T09:19:47.827Z,69.54
2022-10-21T09:25:45.282Z,68.99
2022-10-21T09:31:16.172Z,59.94
2022-10-21T09:36:42.023Z,63.90
2022-10-21T09:42:10.701Z,63.01
2022-10-21T09:47:35.400Z,64.33
2022-10-21T09:53:15.330Z,58.12
2022-10-21T09:58:37.146Z,62.91
2022-10-21T10:03:59.164Z,59.29
2022-10-21T10:09:28.702Z,58.05
2022-10-21T10:14:50.956Z,62.23
2022-10-21T10:20:19.817Z,64.15
2022-10-21T10:25:47.737Z,62.91
2022-10-21T10:31:09.895Z,64.13
2022-10-21T10:36:36.272Z,63.92
2022-10-21T10:41:58.728Z,66.95
2022-10-21T10:47:26.201Z,66.95
2022-10-21T10:52:48.031Z,65.59
2022-10-21T10:58:13.466Z,65.29
2022-10-21T11:03:44.324Z,66.37
2022-10-21T11:09:07.756Z,65.70
2022-10-21T11:14:29.799Z,67.44
2022-10-21T11:19:59.649Z,67.59
2022-10-21T11:25:42.569Z,64.72
2022-10-21T11:31:13.457Z,64.69
2022-10-21T11:36:40.695Z,66.29
2022-10-21T11:42:17.559Z,64.31
2022-10-21T11:47:55.416Z,62.68
2022-10-21T11:53:41.913Z,62.77
2022-10-21T11:59:20.866Z,64.24
2022-10-21T12:04:51.953Z,63.54
2022-10-21T12:10:29.848Z,63.37
2022-10-21T12:15:58.606Z,64.25
2022-10-21T12:21:25.173Z,64.87
2022-10-21T12:27:23.385Z,66.93
2022-10-21T12:33:16.416Z,65.94
2022-10-21T12:38:57.241Z,66.55
2022-10-21T12:44:21.854Z,66.24
2022-10-21T12:49:44.097Z,66.88
2022-10-21T12:55:16.746Z,66.61
2022-10-21T13:00:38.551Z,67.16
2022-10-21T13:06:03.061Z,67.42
2022-10-21T13:11:39.301Z,66.85
2022-10-21T13:17:28.878Z,69.90
2022-10-21T13:22:53.106Z,69.47
2022-10-21T13:28:14.876Z,70.57
2022-10-21T13:33:38.407Z,70.56
2022-10-21T13:39:04.968Z,70.63
2022-10-21T13:44:40.428Z,72.82
2022-10-21T13:50:21.666Z,71.39
2022-10-21T13:55:53.718Z,71.73
2022-10-21T14:01:18.303Z,72.19
2022-10-21T14:06:46.278Z,72.70
2022-10-21T14:12:21.794Z,73.27
2022-10-21T14:17:50.563Z,73.82
2022-10-21T14:23:19.410Z,73.61
2022-10-21T14:28:44.127Z,73.76
2022-10-21T14:34:06.043Z,74.55
2022-10-21T14:39:28.690Z,74.79
2022-10-21T14:45:02.733Z,75.11
2022-10-21T14:50:25.074Z,75.83
2022-10-21T14:55:48.564Z,76.42
2022-10-21T15:01:21.665Z,75.92
2022-10-21T15:06:59.786Z,75.93
2022-10-21T15:12:21.701Z,76.77
2022-10-21T15:17:43.561Z,76.86
2022-10-21T15:23:05.428Z,76.29
2022-10-21T15:28:32.903Z,75.73
2022-10-21T15:33:56.953Z,75.46
2022-10-21T15:39:18.967Z,76.18
2022-10-21T15:44:41.131Z,75.65
2022-10-21T15:50:13.892Z,76.54
2022-10-21T15:55:35.952Z,76.30
2022-10-21T16:00:58.686Z,76.92
2022-10-21T16:06:22.274Z,76.96
2022-10-21T16:11:58.859Z,77.11
2022-10-21T16:17:21.645Z,77.05
2022-10-21T16:22:43.512Z,77.36
2022-10-21T16:28:05.574Z,77.81
2022-10-21T16:33:27.621Z,77.39
2022-10-21T16:38:50.630Z,77.02
2022-10-21T16:44:12.490Z,77.78
2022-10-21T16:49:34.524Z,78.27
2022-10-21T16:54:56.404Z,78.98
2022-10-21T17:00:18.430Z,79.72
2022-10-21T17:05:40.393Z,79.60
2022-10-21T17:11:02.274Z,80.21
2022-10-21T17:16:24.336Z,80.49
2022-10-21T17:21:46.503Z,80.67
2022-10-21T17:27:08.486Z,82.17
2022-10-21T17:32:30.697Z,81.59
2022-10-21T17:37:52.907Z,82.35
2022-10-21T17:43:14.867Z,82.15
2022-10-21T17:48:36.748Z,83.00
2022-10-21T17:53:58.905Z,83.75
2022-10-21T17:59:20.883Z,84.31
2022-10-21T18:04:42.782Z,83.82
2022-10-21T18:10:05.872Z,84.78
2022-10-21T18:15:27.699Z,85.32
2022-10-21T18:20:49.585Z,85.92
2022-10-21T18:26:14.494Z,86.14
2022-10-21T18:31:39.077Z,86.59
2022-10-21T18:37:00.907Z,87.15
2022-10-21T18:42:22.752Z,87.26
2022-10-21T18:47:44.669Z,86.96
2022-10-21T18:53:06.523Z,86.17
2022-10-21T18:58:30.389Z,86.92
2022-10-21T19:03:53.037Z,86.95
2022-10-21T19:09:21.056Z,87.61
2022-10-21T19:14:42.912Z,87.37
2022-10-21T19:20:05.593Z,87.11
2022-10-21T19:25:27.717Z,87.78
2022-10-21T19:30:49.645Z,87.43
2022-10-21T19:36:11.826Z,87.50
2022-10-21T19:41:33.934Z,87.72
2022-10-21T19:46:55.878Z,87.49
2022-10-21T19:52:17.745Z,87.89
2022-10-21T19:57:39.685Z,88.02
2022-10-21T20:03:01.769Z,87.94
2022-10-21T20:08:23.888Z,87.05
2022-10-21T20:13:47.031Z,87.41
2022-10-21T20:19:10.495Z,87.24
2022-10-21T20:24:32.316Z,87.06
2022-10-21T20:29:54.248Z,87.75
2022-10-21T20:35:16.094Z,87.20
2022-10-21T20:40:38.351Z,87.45
2022-10-21T20:46:05.251Z,86.86
2022-10-21T20:51:29.045Z,87.20
2022-10-21T20:56:51.477Z,87.28
2022-10-21T21:02:13.419Z,88.11
2022-10-21T21:07:35.962Z,88.56
2022-10-21T21:12:57.917Z,88.92
2022-10-21T21:18:19.809Z,90.00
2022-10-21T21:23:43.342Z,90.12
2022-10-21T21:29:06.945Z,90.35
2022-10-21T21:34:28.820Z,90.89
2022-10-21T21:39:50.769Z,90.99
2022-10-21T21:45:12.597Z,91.43
2022-10-21T21:50:34.464Z,91.29
2022-10-21T21:55:59.768Z,91.87
2022-10-21T22:01:28.109Z,91.94
2022-10-21T22:06:49.997Z,92.67
2022-10-21T22:12:14.473Z,92.99
2022-10-21T22:17:37.129Z,94.36
2022-10-21T22:22:59.514Z,94.68
2022-10-21T22:28:21.355Z,95.84
2022-10-21T22:39:05.843Z,97.61
2022-10-21T22:44:27.690Z,97.50
2022-10-21T22:49:50.739Z,97.48
2022-10-21T22:55:12.710Z,98.52
2022-10-21T23:00:34.700Z,99.87
2022-10-21T23:05:56.533Z,100.00
2022-10-21T23:11:18.388Z,100.00
2022-10-21T23:16:40.271Z,100.00
2022-10-21T23:22:02.097Z,100.00
2022-10-21T23:27:23.923Z,100.00
2022-10-21T23:32:46.214Z,100.00
2022-10-21T23:38:08.142Z,100.00
2022-10-21T23:43:30.826Z,100.00
2022-10-21T23:48:52.652Z,100.00
2022-10-21T23:54:14.505Z,100.00
2022-10-21T23:59:36.428Z,100.00
